sensor_id;sensor_type;location;lat;lon;timestamp;pressure;altitude;pressure_sealevel;temperature;humidity
15817;BME280;8009;50.070;8.232;2023-05-16T00:00:05;99718.25;;;13.97;nan
15817;BME280;8009;50.070;8.232;2023-05-16T00:02:34;99718.38;;;14.05;nan
15817;BME280;8009;50.070;8.232;2023-05-16T00:05:04;99720.63;;;14.19;nan
15817;BME280;8009;50.070;8.232;2023-05-16T00:07:35;99726.22;;;14.08;nan
15817;BME280;8009;50.070;8.232;2023-05-16T00:10:07;99722.97;;;13.95;nan
15817;BME280;8009;50.070;8.232;2023-05-16T00:12:35;99737.22;;;14.06;nan
15817;BME280;8009;50.070;8.232;2023-05-16T00:15:05;99726.25;;;13.88;nan
15817;BME280;8009;50.070;8.232;2023-05-16T00:17:37;99729.09;;;14.06;nan
15817;BME280;8009;50.070;8.232;2023-05-16T00:20:09;99724.38;;;13.70;nan
15817;BME280;8009;50.070;8.232;2023-05-16T00:22:38;99730.66;;;14.09;nan
15817;BME280;8009;50.070;8.232;2023-05-16T00:25:09;99740.94;;;14.15;nan
15817;BME280;8009;50.070;8.232;2023-05-16T00:27:38;99735.09;;;14.20;nan
15817;BME280;8009;50.070;8.232;2023-05-16T00:30:07;99735.72;;;14.41;nan
15817;BME280;8009;50.070;8.232;2023-05-16T00:32:35;99745.91;;;14.29;nan
15817;BME280;8009;50.070;8.232;2023-05-16T00:35:05;99730.59;;;14.38;nan
15817;BME280;8009;50.070;8.232;2023-05-16T00:37:35;99736.63;;;14.32;nan
15817;BME280;8009;50.070;8.232;2023-05-16T00:40:04;99732.22;;;14.11;nan
15817;BME280;8009;50.070;8.232;2023-05-16T00:42:35;99739.78;;;14.18;nan
15817;BME280;8009;50.070;8.232;2023-05-16T00:45:05;99735.38;;;14.07;nan
15817;BME280;8009;50.070;8.232;2023-05-16T00:47:34;99738.50;;;14.22;nan
15817;BME280;8009;50.070;8.232;2023-05-16T00:50:04;99736.50;;;14.14;nan
15817;BME280;8009;50.070;8.232;2023-05-16T00:52:32;99743.81;;;14.04;nan
15817;BME280;8009;50.070;8.232;2023-05-16T00:55:01;99735.25;;;13.99;nan
15817;BME280;8009;50.070;8.232;2023-05-16T00:57:30;99740.53;;;14.20;nan
15817;BME280;8009;50.070;8.232;2023-05-16T01:00:01;99739.91;;;14.26;nan
15817;BME280;8009;50.070;8.232;2023-05-16T01:02:29;99735.91;;;14.30;nan
15817;BME280;8009;50.070;8.232;2023-05-16T01:04:58;99747.25;;;13.96;nan
15817;BME280;8009;50.070;8.232;2023-05-16T01:07:26;99746.25;;;13.87;nan
15817;BME280;8009;50.070;8.232;2023-05-16T01:09:55;99742.97;;;13.94;nan
15817;BME280;8009;50.070;8.232;2023-05-16T01:12:30;99737.69;;;14.02;nan
15817;BME280;8009;50.070;8.232;2023-05-16T01:15:08;99744.81;;;14.03;nan
15817;BME280;8009;50.070;8.232;2023-05-16T01:17:48;99748.50;;;14.11;nan
15817;BME280;8009;50.070;8.232;2023-05-16T01:20:27;99753.38;;;14.08;nan
15817;BME280;8009;50.070;8.232;2023-05-16T01:23:18;99757.94;;;14.07;nan
15817;BME280;8009;50.070;8.232;2023-05-16T01:25:56;99755.81;;;14.01;
15817;BME280;8009;50.070;8.232;2023-05-16T01:28:32;99749.13;;;13.86;nan
15817;BME280;8009;50.070;8.232;2023-05-16T01:31:01;99752.66;;;14.15;nan
15817;BME280;8009;50.070;8.232;2023-05-16T01:33:29;99752.25;;;14.01;nan
15817;BME280;8009;50.070;8.232;2023-05-16T01:36:03;99759.66;;;13.60;nan
15817;BME280;8009;50.070;8.232;2023-05-16T01:38:37;99762.81;;;13.65;nan
15817;BME280;8009;50.070;8.232;2023-05-16T01:41:12;99760.38;;;13.62;nan
15817;BME280;8009;50.070;8.232;2023-05-16T01:43:47;99768.81;;;13.78;nan
15817;BME280;8009;50.070;8.232;2023-05-16T01:46:26;99767.53;;;13.82;nan
15817;BME280;8009;50.070;8.232;2023-05-16T01:49:03;99759.81;;;13.87;nan
15817;BME280;8009;50.070;8.232;2023-05-16T01:51:34;99757.81;;;13.80;nan
15817;BME280;8009;50.070;8.232;2023-05-16T01:54:11;99743.69;;;13.86;nan
15817;BME280;8009;50.070;8.232;2023-05-16T01:56:43;99743.53;;;13.87;nan
15817;BME280;8009;50.070;8.232;2023-05-16T01:59:19;99753.53;;;13.87;nan
15817;BME280;8009;50.070;8.232;2023-05-16T02:01:48;99742.84;;;13.85;nan
15817;BME280;8009;50.070;8.232;2023-05-16T02:04:16;99754.53;;;13.57;nan
15817;BME280;8009;50.070;8.232;2023-05-16T02:06:45;99754.53;;;13.47;nan
15817;BME280;8009;50.070;8.232;2023-05-16T02:09:13;99751.69;;;13.58;nan
15817;BME280;8009;50.070;8.232;2023-05-16T02:11:42;99756.38;;;13.56;nan
15817;BME280;8009;50.070;8.232;2023-05-16T02:14:11;99754.81;;;13.73;nan
15817;BME280;8009;50.070;8.232;2023-05-16T02:16:42;99767.41;;;13.14;nan
15817;BME280;8009;50.070;8.232;2023-05-16T02:19:10;99758.09;;;13.67;nan
15817;BME280;8009;50.070;8.232;2023-05-16T02:21:38;99757.81;;;13.80;nan
15817;BME280;8009;50.070;8.232;2023-05-16T02:24:07;99762.50;;;13.49;nan
15817;BME280;8009;50.070;8.232;2023-05-16T02:26:35;99772.66;;;13.56;nan
15817;BME280;8009;50.070;8.232;2023-05-16T02:29:04;99763.22;;;13.41;nan
15817;BME280;8009;50.070;8.232;2023-05-16T02:31:33;99765.78;;;13.43;nan
15817;BME280;8009;50.070;8.232;2023-05-16T02:34:04;99768.50;;;13.62;nan
15817;BME280;8009;50.070;8.232;2023-05-16T02:36:32;99764.22;;;13.50;nan
15817;BME280;8009;50.070;8.232;2023-05-16T02:39:01;99767.41;;;13.14;nan
15817;BME280;8009;50.070;8.232;2023-05-16T02:41:30;99770.53;;;13.20;nan
15817;BME280;8009;50.070;8.232;2023-05-16T02:43:58;99768.91;;;13.38;nan
15817;BME280;8009;50.070;8.232;2023-05-16T02:46:28;99774.63;;;13.54;nan
15817;BME280;8009;50.070;8.232;2023-05-16T02:48:57;99768.91;;;13.38;nan
15817;BME280;8009;50.070;8.232;2023-05-16T02:51:28;99766.81;;;13.51;nan
15817;BME280;8009;50.070;8.232;2023-05-16T02:53:57;99767.53;;;13.63;nan
15817;BME280;8009;50.070;8.232;2023-05-16T02:56:25;99768.44;;;13.23;nan
15817;BME280;8009;50.070;8.232;2023-05-16T02:58:54;99773.16;;;13.31;nan
15817;BME280;8009;50.070;8.232;2023-05-16T03:01:22;99782.59;;;13.27;nan
15817;BME280;8009;50.070;8.232;2023-05-16T03:03:51;99770.91;;;13.36;nan
15817;BME280;8009;50.070;8.232;2023-05-16T03:06:19;99784.50;;;13.15;nan
15817;BME280;8009;50.070;8.232;2023-05-16T03:08:50;99780.91;;;12.74;nan
15817;BME280;8009;50.070;8.232;2023-05-16T03:11:19;99775.19;;;13.29;nan
15817;BME280;8009;50.070;8.232;2023-05-16T03:13:49;99783.09;;;13.51;nan
15817;BME280;8009;50.070;8.232;2023-05-16T03:16:17;99784.47;;;13.46;nan
15817;BME280;8009;50.070;8.232;2023-05-16T03:18:46;99778.31;;;13.34;nan
15817;BME280;8009;50.070;8.232;2023-05-16T03:21:14;99786.91;;;13.08;nan
15817;BME280;8009;50.070;8.232;2023-05-16T03:23:42;99794.22;;;13.17;nan
15817;BME280;8009;50.070;8.232;2023-05-16T03:26:13;99788.28;;;12.93;nan
15817;BME280;8009;50.070;8.232;2023-05-16T03:28:41;99795.44;;;13.34;nan
15817;BME280;8009;50.070;8.232;2023-05-16T03:31:10;99796.91;;;13.08;nan
15817;BME280;8009;50.070;8.232;2023-05-16T03:33:38;99791.28;;;13.30;nan
15817;BME280;8009;50.070;8.232;2023-05-16T03:36:07;99798.72;;;13.28;nan
15817;BME280;8009;50.070;8.232;2023-05-16T03:38:36;99783.91;;;13.42;nan
15817;BME280;8009;50.070;8.232;2023-05-16T03:41:04;99797.38;;;13.13;nan
15817;BME280;8009;50.070;8.232;2023-05-16T03:43:35;99806.03;;;13.37;nan
15817;BME280;8009;50.070;8.232;2023-05-16T03:46:04;99798.66;;;12.78;nan
15817;BME280;8009;50.070;8.232;2023-05-16T03:48:32;99795.69;;;12.91;nan
15817;BME280;8009;50.070;8.232;2023-05-16T03:51:00;99798.16;;;13.25;nan
15817;BME280;8009;50.070;8.232;2023-05-16T03:53:28;99794.00;;;12.90;nan
15817;BME280;8009;50.070;8.232;2023-05-16T03:55:57;99801.22;;;12.80;nan
15817;BME280;8009;50.070;8.232;2023-05-16T03:58:26;99801.88;;;13.03;nan
15817;BME280;8009;50.070;8.232;2023-05-16T04:00:56;99804.53;;;12.93;nan
15817;BME280;8009;50.070;8.232;2023-05-16T04:03:25;99804.19;;;13.07;nan
15817;BME280;8009;50.070;8.232;2023-05-16T04:05:54;99809.28;;;13.01;nan
15817;BME280;8009;50.070;8.232;2023-05-16T04:08:23;99801.63;;;13.15;nan
15817;BME280;8009;50.070;8.232;2023-05-16T04:10:51;99803.63;;;13.44;nan
15817;BME280;8009;50.070;8.232;2023-05-16T04:13:20;99815.34;;;13.14;nan
15817;BME280;8009;50.070;8.232;2023-05-16T04:15:50;99814.66;;;13.22;nan
15817;BME280;8009;50.070;8.232;2023-05-16T04:18:21;99812.66;;;12.93;nan
15817;BME280;8009;50.070;8.232;2023-05-16T04:20:49;99815.44;;;13.03;nan
15817;BME280;8009;50.070;8.232;2023-05-16T04:23:17;99811.53;;;12.96;nan
15817;BME280;8009;50.070;8.232;2023-05-16T04:25:45;99820.53;;;12.96;nan
15817;BME280;8009;50.070;8.232;2023-05-16T04:28:15;99808.47;;;13.10;nan
15817;BME280;8009;50.070;8.232;2023-05-16T04:30:43;99812.75;;;12.82;nan
15817;BME280;8009;50.070;8.232;2023-05-16T04:33:11;99803.16;;;12.99;nan
15817;BME280;8009;50.070;8.232;2023-05-16T04:35:43;99813.84;;;13.00;nan
15817;BME280;8009;50.070;8.232;2023-05-16T04:38:12;99799.50;;;13.09;nan
15817;BME280;8009;50.070;8.232;2023-05-16T04:40:41;99814.50;;;12.83;nan
15817;BME280;8009;50.070;8.232;2023-05-16T04:43:09;99813.13;;;12.98;nan
15817;BME280;8009;50.070;8.232;2023-05-16T04:45:38;99795.44;;;12.94;nan
15817;BME280;8009;50.070;8.232;2023-05-16T04:48:07;99815.25;;;12.95;nan
15817;BME280;8009;50.070;8.232;2023-05-16T04:50:35;99825.28;;;13.04;nan
15817;BME280;8009;50.070;8.232;2023-05-16T04:53:07;99824.50;;;12.92;nan
15817;BME280;8009;50.070;8.232;2023-05-16T04:55:35;99823.81;;;13.00;nan
15817;BME280;8009;50.070;8.232;2023-05-16T04:58:03;99825.25;;;12.94;nan
15817;BME280;8009;50.070;8.232;2023-05-16T05:00:32;99832.63;;;12.92;nan
15817;BME280;8009;50.070;8.232;2023-05-16T05:03:01;99822.53;;;13.25;nan
15817;BME280;8009;50.070;8.232;2023-05-16T05:05:29;99828.34;;;12.89;nan
15817;BME280;8009;50.070;8.232;2023-05-16T05:07:59;99838.63;;;12.65;nan
15817;BME280;8009;50.070;8.232;2023-05-16T05:10:31;99840.13;;;12.79;nan
15817;BME280;8009;50.070;8.232;2023-05-16T05:12:59;99836.94;;;12.95;nan
15817;BME280;8009;50.070;8.232;2023-05-16T05:15:28;99838.28;;;12.79;nan
15817;BME280;8009;50.070;8.232;2023-05-16T05:17:56;99842.47;;;12.93;nan
15817;BME280;8009;50.070;8.232;2023-05-16T05:20:24;99840.25;;;12.98;nan
15817;BME280;8009;50.070;8.232;2023-05-16T05:22:53;99847.97;;;13.03;nan
15817;BME280;8009;50.070;8.232;2023-05-16T05:25:21;99858.69;;;12.62;nan
15817;BME280;8009;50.070;8.232;2023-05-16T05:27:52;99854.06;;;12.74;nan
15817;BME280;8009;50.070;8.232;2023-05-16T05:30:20;99860.38;;;12.75;nan
15817;BME280;8009;50.070;8.232;2023-05-16T05:32:49;99856.91;;;12.73;nan
15817;BME280;8009;50.070;8.232;2023-05-16T05:35:17;99854.72;;;12.87;nan
15817;BME280;8009;50.070;8.232;2023-05-16T05:37:46;99865.06;;;13.03;nan
15817;BME280;8009;50.070;8.232;2023-05-16T05:40:14;99874.34;;;12.59;nan
15817;BME280;8009;50.070;8.232;2023-05-16T05:42:43;99877.00;;;12.91;nan
15817;BME280;8009;50.070;8.232;2023-05-16T05:45:14;99882.34;;;13.02;nan
15817;BME280;8009;50.070;8.232;2023-05-16T05:47:43;99879.53;;;13.13;nan
15817;BME280;8009;50.070;8.232;2023-05-16T05:50:12;99889.03;;;12.98;nan
15817;BME280;8009;50.070;8.232;2023-05-16T05:52:40;99886.91;;;12.81;nan
15817;BME280;8009;50.070;8.232;2023-05-16T05:55:09;99887.84;;;12.70;nan
15817;BME280;8009;50.070;8.232;2023-05-16T05:57:38;99898.53;;;13.13;nan
15817;BME280;8009;50.070;8.232;2023-05-16T06:00:07;99899.16;;;13.57;nan
15817;BME280;8009;50.070;8.232;2023-05-16T06:02:38;99896.66;;;13.14;nan
15817;BME280;8009;50.070;8.232;2023-05-16T06:05:08;99900.97;;;12.96;nan
15817;BME280;8009;50.070;8.232;2023-05-16T06:07:39;99909.19;;;12.84;nan
15817;BME280;8009;50.070;8.232;2023-05-16T06:10:09;99923.63;;;13.15;nan
15817;BME280;8009;50.070;8.232;2023-05-16T06:12:38;99909.78;;;12.88;nan
15817;BME280;8009;50.070;8.232;2023-05-16T06:15:09;99911.13;;;12.93;nan
15817;BME280;8009;50.070;8.232;2023-05-16T06:17:40;99926.81;;;13.00;nan
15817;BME280;8009;50.070;8.232;2023-05-16T06:20:11;99930.25;;;12.60;nan
15817;BME280;8009;50.070;8.232;2023-05-16T06:22:39;99918.97;;;12.76;nan
15817;BME280;8009;50.070;8.232;2023-05-16T06:25:08;99927.91;;;12.34;nan
15817;BME280;8009;50.070;8.232;2023-05-16T06:27:39;99926.56;;;12.61;nan
15817;BME280;8009;50.070;8.232;2023-05-16T06:30:08;99921.84;;;12.42;nan
15817;BME280;8009;50.070;8.232;2023-05-16T06:32:36;99923.13;;;12.80;nan
15817;BME280;8009;50.070;8.232;2023-05-16T06:35:08;99935.78;;;12.37;nan
15817;BME280;8009;50.070;8.232;2023-05-16T06:37:36;99945.59;;;12.38;nan
15817;BME280;8009;50.070;8.232;2023-05-16T06:40:06;99938.34;;;12.39;nan
15817;BME280;8009;50.070;8.232;2023-05-16T06:42:35;99946.38;;;12.61;nan
15817;BME280;8009;50.070;8.232;2023-05-16T06:45:07;99943.22;;;12.56;nan
15817;BME280;8009;50.070;8.232;2023-05-16T06:47:36;99947.38;;;12.60;nan
15817;BME280;8009;50.070;8.232;2023-05-16T06:50:08;99953.03;;;12.57;nan
15817;BME280;8009;50.070;8.232;2023-05-16T06:52:37;99950.59;;;12.54;nan
15817;BME280;8009;50.070;8.232;2023-05-16T06:55:06;99955.19;;;12.42;nan
15817;BME280;8009;50.070;8.232;2023-05-16T06:57:36;99961.03;;;12.59;nan
15817;BME280;8009;50.070;8.232;2023-05-16T07:00:06;99968.69;;;12.54;nan
15817;BME280;8009;50.070;8.232;2023-05-16T07:02:35;99967.13;;;12.40;nan
15817;BME280;8009;50.070;8.232;2023-05-16T07:05:07;99982.28;;;12.42;nan
15817;BME280;8009;50.070;8.232;2023-05-16T07:07:35;99987.25;;;12.26;nan
15817;BME280;8009;50.070;8.232;2023-05-16T07:10:05;99985.72;;;12.44;nan
15817;BME280;8009;50.070;8.232;2023-05-16T07:12:34;99985.16;;;12.62;nan
15817;BME280;8009;50.070;8.232;2023-05-16T07:15:05;99988.53;;;12.43;nan
15817;BME280;8009;50.070;8.232;2023-05-16T07:17:33;99981.78;;;12.69;nan
15817;BME280;8009;50.070;8.232;2023-05-16T07:20:02;99988.00;;;12.60;nan
15817;BME280;8009;50.070;8.232;2023-05-16T07:22:33;99991.56;;;12.61;nan
15817;BME280;8009;50.070;8.232;2023-05-16T07:25:01;100007.34;;;12.56;nan
15817;BME280;8009;50.070;8.232;2023-05-16T07:27:30;100008.09;;;12.47;nan
15817;BME280;8009;50.070;8.232;2023-05-16T07:29:58;100012.38;;;12.60;nan
15817;BME280;8009;50.070;8.232;2023-05-16T07:32:26;100011.09;;;12.76;nan
15817;BME280;8009;50.070;8.232;2023-05-16T07:34:55;100018.34;;;12.75;nan
15817;BME280;8009;50.070;8.232;2023-05-16T07:37:23;100028.09;;;12.34;nan
15817;BME280;8009;50.070;8.232;2023-05-16T07:39:54;100044.06;;;12.49;nan
15817;BME280;8009;50.070;8.232;2023-05-16T07:42:23;100039.78;;;12.78;nan
15817;BME280;8009;50.070;8.232;2023-05-16T07:44:52;100046.53;;;12.52;nan
15817;BME280;8009;50.070;8.232;2023-05-16T07:47:21;100050.00;;;12.31;nan
15817;BME280;8009;50.070;8.232;2023-05-16T07:49:50;100068.00;;;12.21;nan
15817;BME280;8009;50.070;8.232;2023-05-16T07:52:18;100062.44;;;12.11;nan
15817;BME280;8009;50.070;8.232;2023-05-16T07:54:46;100071.56;;;12.10;nan
15817;BME280;8009;50.070;8.232;2023-05-16T07:57:17;100063.06;;;12.26;nan
15817;BME280;8009;50.070;8.232;2023-05-16T07:59:46;100070.69;;;12.21;nan
15817;BME280;8009;50.070;8.232;2023-05-16T08:02:16;100076.44;;;12.28;nan
15817;BME280;8009;50.070;8.232;2023-05-16T08:04:45;100074.63;;;12.17;nan
15817;BME280;8009;50.070;8.232;2023-05-16T08:07:14;100080.41;;;12.24;nan
15817;BME280;8009;50.070;8.232;2023-05-16T08:09:44;100080.31;;;12.03;nan
15817;BME280;8009;50.070;8.232;2023-05-16T08:12:13;100082.63;;;12.30;nan
15817;BME280;8009;50.070;8.232;2023-05-16T08:14:44;100093.22;;;11.99;nan
15817;BME280;8009;50.070;8.232;2023-05-16T08:17:12;100098.94;;;12.51;nan
15817;BME280;8009;50.070;8.232;2023-05-16T08:19:40;100096.66;;;12.01;nan
15817;BME280;8009;50.070;8.232;2023-05-16T08:22:09;100104.53;;;12.15;nan
15817;BME280;8009;50.070;8.232;2023-05-16T08:24:37;100106.47;;;12.25;nan
15817;BME280;8009;50.070;8.232;2023-05-16T08:27:05;100116.97;;;12.18;nan
15817;BME280;8009;50.070;8.232;2023-05-16T08:29:36;100104.53;;;12.04;nan
15817;BME280;8009;50.070;8.232;2023-05-16T08:32:07;100112.50;;;12.28;nan
15817;BME280;8009;50.070;8.232;2023-05-16T08:34:36;100113.63;;;12.14;nan
15817;BME280;8009;50.070;8.232;2023-05-16T08:37:04;100113.09;;;12.43;nan
15817;BME280;8009;50.070;8.232;2023-05-16T08:39:34;100108.44;;;12.45;nan
15817;BME280;8009;50.070;8.232;2023-05-16T08:42:02;100112.56;;;12.72;nan
15817;BME280;8009;50.070;8.232;2023-05-16T08:44:33;100110.31;;;12.22;nan
15817;BME280;8009;50.070;8.232;2023-05-16T08:47:10;100111.28;;;12.32;nan
15817;BME280;8009;50.070;8.232;2023-05-16T08:49:42;100116.31;;;12.48;nan
15817;BME280;8009;50.070;8.232;2023-05-16T08:52:12;100116.09;;;12.29;nan
15817;BME280;8009;50.070;8.232;2023-05-16T08:54:42;100116.97;;;12.18;nan
15817;BME280;8009;50.070;8.232;2023-05-16T08:57:13;100123.09;;;12.09;nan
15817;BME280;8009;50.070;8.232;2023-05-16T08:59:42;100117.94;;;12.06;nan
15817;BME280;8009;50.070;8.232;2023-05-16T09:02:16;100133.06;;;12.19;nan
15817;BME280;8009;50.070;8.232;2023-05-16T09:04:46;100128.41;;;12.10;nan
15817;BME280;8009;50.070;8.232;2023-05-16T09:07:16;100120.53;;;12.18;nan
15817;BME280;8009;50.070;8.232;2023-05-16T09:09:44;100133.22;;;12.18;nan
15817;BME280;8009;50.070;8.232;2023-05-16T09:12:34;100131.13;;;12.22;nan
15817;BME280;8009;50.070;8.232;2023-05-16T09:15:06;100137.38;;;12.22;nan
15817;BME280;8009;50.070;8.232;2023-05-16T09:17:38;100141.44;;;12.16;nan
15817;BME280;8009;50.070;8.232;2023-05-16T09:20:12;100138.25;;;12.23;nan
15817;BME280;8009;50.070;8.232;2023-05-16T09:22:52;100150.31;;;12.30;nan
15817;BME280;8009;50.070;8.232;2023-05-16T09:25:22;100150.69;;;12.14;nan
15817;BME280;8009;50.070;8.232;2023-05-16T09:28:01;100151.00;;;12.65;nan
15817;BME280;8009;50.070;8.232;2023-05-16T09:30:31;100150.78;;;12.46;nan
15817;BME280;8009;50.070;8.232;2023-05-16T09:33:05;100150.47;;;12.83;nan
15817;BME280;8009;50.070;8.232;2023-05-16T09:35:34;100158.13;;;12.55;nan
15817;BME280;8009;50.070;8.232;2023-05-16T09:38:02;100154.00;;;12.17;nan
15817;BME280;8009;50.070;8.232;2023-05-16T09:40:30;100157.19;;;12.23;nan
15817;BME280;8009;50.070;8.232;2023-05-16T09:43:03;100157.94;;;12.13;nan
15817;BME280;8009;50.070;8.232;2023-05-16T09:45:34;100154.34;;;12.58;nan
15817;BME280;8009;50.070;8.232;2023-05-16T09:48:06;100160.50;;;12.60;nan
15817;BME280;8009;50.070;8.232;2023-05-16T09:50:37;100157.16;;;12.67;nan
15817;BME280;8009;50.070;8.232;2023-05-16T09:53:07;100162.59;;;12.56;nan
15817;BME280;8009;50.070;8.232;2023-05-16T09:55:35;100156.66;;;12.51;nan
15817;BME280;8009;50.070;8.232;2023-05-16T09:58:04;100164.31;;;12.46;nan
15817;BME280;8009;50.070;8.232;2023-05-16T10:00:33;100159.25;;;12.64;nan
15817;BME280;8009;50.070;8.232;2023-05-16T10:03:01;100159.72;;;12.80;nan
15817;BME280;8009;50.070;8.232;2023-05-16T10:05:33;100155.75;;;12.84;nan
15817;BME280;8009;50.070;8.232;2023-05-16T10:08:03;100159.13;;;12.54;nan
15817;BME280;8009;50.070;8.232;2023-05-16T10:10:35;100163.28;;;12.81;nan
15817;BME280;8009;50.070;8.232;2023-05-16T10:13:07;100159.50;;;12.61;nan
15817;BME280;8009;50.070;8.232;2023-05-16T10:15:36;100167.78;;;12.48;nan
15817;BME280;8009;50.070;8.232;2023-05-16T10:18:06;100159.03;;;12.67;nan
15817;BME280;8009;50.070;8.232;2023-05-16T10:20:41;100161.22;;;12.51;nan
15817;BME280;8009;50.070;8.232;2023-05-16T10:23:16;100170.72;;;12.56;nan
15817;BME280;8009;50.070;8.232;2023-05-16T10:25:48;100163.53;;;12.66;nan
15817;BME280;8009;50.070;8.232;2023-05-16T10:28:17;100163.78;;;12.86;nan
15817;BME280;8009;50.070;8.232;2023-05-16T10:30:46;100159.56;;;12.82;nan
15817;BME280;8009;50.070;8.232;2023-05-16T10:33:19;100172.44;;;13.23;nan
15817;BME280;8009;50.070;8.232;2023-05-16T10:35:52;100171.97;;;12.41;nan
15817;BME280;8009;50.070;8.232;2023-05-16T10:38:28;100168.22;;;12.87;nan
15817;BME280;8009;50.070;8.232;2023-05-16T10:40:57;100168.94;;;12.89;nan
15817;BME280;8009;50.070;8.232;2023-05-16T10:43:28;100166.97;;;12.91;nan
15817;BME280;8009;50.070;8.232;2023-05-16T10:46:04;100166.75;;;13.15;nan
15817;BME280;8009;50.070;8.232;2023-05-16T10:48:35;100172.97;;;13.06;nan
15817;BME280;8009;50.070;8.232;2023-05-16T10:54:35;100160.88;;;13.10;nan
15817;BME280;8009;50.070;8.232;2023-05-16T10:57:05;100165.91;;;13.26;nan
15817;BME280;8009;50.070;8.232;2023-05-16T10:59:41;100172.81;;;13.07;nan
15817;BME280;8009;50.070;8.232;2023-05-16T11:02:30;100165.16;;;13.56;nan
15817;BME280;8009;50.070;8.232;2023-05-16T11:05:01;100162.81;;;13.19;nan
15817;BME280;8009;50.070;8.232;2023-05-16T11:07:31;100147.47;;;13.82;nan
15817;BME280;8009;50.070;8.232;2023-05-16T11:10:07;100146.97;;;13.68;nan
15817;BME280;8009;50.070;8.232;2023-05-16T11:12:42;100154.19;;;13.78;nan
15817;BME280;8009;50.070;8.232;2023-05-16T11:15:19;100154.81;;;13.92;nan
15817;BME280;8009;50.070;8.232;2023-05-16T11:17:47;100160.34;;;14.11;nan
15817;BME280;8009;50.070;8.232;2023-05-16T11:20:28;100160.72;;;13.97;nan
15817;BME280;8009;50.070;8.232;2023-05-16T11:23:24;100150.78;;;13.86;nan
15817;BME280;8009;50.070;8.232;2023-05-16T11:25:59;100146.97;;;14.50;nan
15817;BME280;8009;50.070;8.232;2023-05-16T11:28:27;100157.50;;;14.43;nan
15817;BME280;8009;50.070;8.232;2023-05-16T11:30:57;100148.50;;;14.73;nan
15817;BME280;8009;50.070;8.232;2023-05-16T11:33:32;100160.38;;;14.92;nan
15817;BME280;8009;50.070;8.232;2023-05-16T11:36:02;100155.56;;;15.24;nan
15817;BME280;8009;50.070;8.232;2023-05-16T11:38:32;100152.00;;;15.33;nan
15817;BME280;8009;50.070;8.232;2023-05-16T11:41:07;100146.09;;;14.99;nan
15817;BME280;8009;50.070;8.232;2023-05-16T11:43:38;100149.19;;;14.66;nan
15817;BME280;8009;50.070;8.232;2023-05-16T11:46:10;100150.44;;;15.11;nan
15817;BME280;8009;50.070;8.232;2023-05-16T11:48:39;100150.41;;;15.21;nan
15817;BME280;8009;50.070;8.232;2023-05-16T11:51:09;100140.47;;;14.72;nan
15817;BME280;8009;50.070;8.232;2023-05-16T11:53:39;100148.53;;;15.02;nan
15817;BME280;8009;50.070;8.232;2023-05-16T11:56:10;100149.25;;;15.14;nan
15817;BME280;8009;50.070;8.232;2023-05-16T11:58:38;100152.16;;;15.32;nan
15817;BME280;8009;50.070;8.232;2023-05-16T12:01:06;100153.13;;;15.02;nan
15817;BME280;8009;50.070;8.232;2023-05-16T12:03:35;100142.41;;;15.58;nan
15817;BME280;8009;50.070;8.232;2023-05-16T12:06:06;100140.25;;;15.81;nan
15817;BME280;8009;50.070;8.232;2023-05-16T12:08:35;100141.38;;;15.59;nan
15817;BME280;8009;50.070;8.232;2023-05-16T12:14:09;100135.53;;;16.21;nan
15817;BME280;8009;50.070;8.232;2023-05-16T12:16:39;100137.53;;;15.33;nan
15817;BME280;8009;50.070;8.232;2023-05-16T12:19:09;100135.38;;;15.75;nan
15817;BME280;8009;50.070;8.232;2023-05-16T12:21:38;100128.34;;;15.82;nan
15817;BME280;8009;50.070;8.232;2023-05-16T12:24:09;100136.78;;;15.89;nan
15817;BME280;8009;50.070;8.232;2023-05-16T12:26:41;100138.06;;;15.95;nan
15817;BME280;8009;50.070;8.232;2023-05-16T12:29:09;100135.88;;;16.45;nan
15817;BME280;8009;50.070;8.232;2023-05-16T12:31:39;100132.31;;;16.07;nan
15817;BME280;8009;50.070;8.232;2023-05-16T12:34:17;100138.09;;;15.85;nan
15817;BME280;8009;50.070;8.232;2023-05-16T12:36:50;100140.41;;;15.80;nan
15817;BME280;8009;50.070;8.232;2023-05-16T12:39:21;100139.78;;;16.33;nan
15817;BME280;8009;50.070;8.232;2023-05-16T12:41:52;100132.25;;;16.54;nan
15817;BME280;8009;50.070;8.232;2023-05-16T12:44:20;100132.34;;;16.25;nan
15817;BME280;8009;50.070;8.232;2023-05-16T12:46:50;100129.06;;;15.84;nan
15817;BME280;8009;50.070;8.232;2023-05-16T12:49:22;100143.41;;;15.28;nan
15817;BME280;8009;50.070;8.232;2023-05-16T12:51:52;100155.31;;;15.76;nan
15817;BME280;8009;50.070;8.232;2023-05-16T12:54:23;100154.22;;;16.16;nan
15817;BME280;8009;50.070;8.232;2023-05-16T12:56:54;100144.81;;;16.38;nan
15817;BME280;8009;50.070;8.232;2023-05-16T12:59:34;100143.53;;;16.32;nan
15817;BME280;8009;50.070;8.232;2023-05-16T13:08:21;100145.22;;;16.43;nan
15817;BME280;8009;50.070;8.232;2023-05-16T13:10:50;100152.41;;;17.17;nan
15817;BME280;8009;50.070;8.232;2023-05-16T13:13:22;100146.78;;;16.73;nan
15817;BME280;8009;50.070;8.232;2023-05-16T13:15:50;100144.94;;;16.36;nan
15817;BME280;8009;50.070;8.232;2023-05-16T13:18:19;100136.75;;;16.46;nan
15817;BME280;8009;50.070;8.232;2023-05-16T13:20:47;100161.44;;;15.88;nan
15817;BME280;8009;50.070;8.232;2023-05-16T13:23:16;100147.81;;;16.35;nan
15817;BME280;8009;50.070;8.232;2023-05-16T13:25:46;100151.28;;;16.64;nan
15817;BME280;8009;50.070;8.232;2023-05-16T13:28:14;100155.31;;;16.60;nan
15817;BME280;8009;50.070;8.232;2023-05-16T13:30:45;100155.53;;;16.39;nan
15817;BME280;8009;50.070;8.232;2023-05-16T13:33:13;100146.69;;;16.37;nan
15817;BME280;8009;50.070;8.232;2023-05-16T13:35:50;100147.66;;;16.73;nan
15817;BME280;8009;50.070;8.232;2023-05-16T13:38:22;100147.75;;;16.81;nan
15817;BME280;8009;50.070;8.232;2023-05-16T13:40:50;100166.28;;;16.78;nan
15817;BME280;8009;50.070;8.232;2023-05-16T13:43:19;100170.22;;;16.93;nan
15817;BME280;8009;50.070;8.232;2023-05-16T13:45:50;100159.59;;;16.63;nan
15817;BME280;8009;50.070;8.232;2023-05-16T13:48:19;100164.06;;;16.64;nan
15817;BME280;8009;50.070;8.232;2023-05-16T13:50:47;100169.81;;;16.61;nan
15817;BME280;8009;50.070;8.232;2023-05-16T13:53:16;100168.41;;;16.56;nan
15817;BME280;8009;50.070;8.232;2023-05-16T13:55:52;100182.59;;;16.60;nan